< < Back
Terminal Aerodrome Forecast


Current Version              Previous Versions:   1  2  3  4  5  6  7  8  9  

Terminal Aerodrome Forecast

339
FTUS44 KBMX 272323
TAFTCL
TAF
KTCL 272323Z 2800/2824 32010G18KT P6SM BKN060
     FM280300 33006KT P6SM FEW080=



Latest METAR

077
SAUS70 KWBC 280000 RRJ
MTRTCL
METAR KTCL 272353Z 33011G18KT 10SM -RA BKN047 BKN070 OVC090 10/01 A3007
RMK AO2 RAB50 SLP183 P0000 60000 T01000011 10156 20100
53027


USA.gov is the U.S. government's official web portal to all federal, state and local government web resources and services.